sensor_id;sensor_type;location;lat;lon;timestamp;pressure;altitude;pressure_sealevel;temperature
15453;BMP280;7827;53.594;9.938;2023-10-09T00:00:34;32935.03;;;-135.29
15453;BMP280;7827;53.594;9.938;2023-10-09T00:03:22;33177.13;;;-135.29
15453;BMP280;7827;53.594;9.938;2023-10-09T00:05:51;33026.06;;;-135.29
15453;BMP280;7827;53.594;9.938;2023-10-09T00:08:21;33022.19;;;-135.29
15453;BMP280;7827;53.594;9.938;2023-10-09T00:11:00;32927.28;;;-135.29
15453;BMP280;7827;53.594;9.938;2023-10-09T00:13:41;32816.88;;;-135.29
15453;BMP280;7827;53.594;9.938;2023-10-09T00:16:18;32845.94;;;-135.29
15453;BMP280;7827;53.594;9.938;2023-10-09T00:18:51;32832.38;;;-135.29
15453;BMP280;7827;53.594;9.938;2023-10-09T00:21:20;32834.31;;;-135.29
15453;BMP280;7827;53.594;9.938;2023-10-09T00:23:50;32892.41;;;-135.29
15453;BMP280;7827;53.594;9.938;2023-10-09T00:26:24;32747.16;;;-135.29
15453;BMP280;7827;53.594;9.938;2023-10-09T00:28:53;32871.09;;;-135.29
15453;BMP280;7827;53.594;9.938;2023-10-09T00:31:21;32836.25;;;-135.29
15453;BMP280;7827;53.594;9.938;2023-10-09T00:34:00;32900.16;;;-135.29
15453;BMP280;7827;53.594;9.938;2023-10-09T00:36:46;32801.38;;;-135.29
15453;BMP280;7827;53.594;9.938;2023-10-09T00:39:19;32873.03;;;-135.29
15453;BMP280;7827;53.594;9.938;2023-10-09T00:42:09;32940.84;;;-135.29
15453;BMP280;7827;53.594;9.938;2023-10-09T00:44:40;32783.94;;;-135.29
15453;BMP280;7827;53.594;9.938;2023-10-09T00:47:12;32782.00;;;-135.29
15453;BMP280;7827;53.594;9.938;2023-10-09T00:49:53;32878.84;;;-135.29
15453;BMP280;7827;53.594;9.938;2023-10-09T00:52:29;32936.97;;;-135.29
15453;BMP280;7827;53.594;9.938;2023-10-09T00:55:05;32894.34;;;-135.29
15453;BMP280;7827;53.594;9.938;2023-10-09T00:57:45;32933.09;;;-135.29
15453;BMP280;7827;53.594;9.938;2023-10-09T01:00:27;32977.63;;;-135.29
15453;BMP280;7827;53.594;9.938;2023-10-09T01:03:15;32919.53;;;-135.29
15453;BMP280;7827;53.594;9.938;2023-10-09T01:05:51;33006.69;;;-135.29
15453;BMP280;7827;53.594;9.938;2023-10-09T01:08:25;33033.81;;;-135.29
15453;BMP280;7827;53.594;9.938;2023-10-09T01:10:57;32873.03;;;-135.29
15453;BMP280;7827;53.594;9.938;2023-10-09T01:13:39;33029.94;;;-135.29
15453;BMP280;7827;53.594;9.938;2023-10-09T01:16:22;32905.97;;;-135.29
15453;BMP280;7827;53.594;9.938;2023-10-09T01:18:53;33035.75;;;-135.29
15453;BMP280;7827;53.594;9.938;2023-10-09T01:21:25;32995.06;;;-135.29
15453;BMP280;7827;53.594;9.938;2023-10-09T01:23:56;32944.72;;;-135.29
15453;BMP280;7827;53.594;9.938;2023-10-09T01:26:32;32869.16;;;-135.29
15453;BMP280;7827;53.594;9.938;2023-10-09T01:29:07;32960.19;;;-135.29
15453;BMP280;7827;53.594;9.938;2023-10-09T01:31:38;32987.31;;;-135.29
15453;BMP280;7827;53.594;9.938;2023-10-09T01:34:11;33012.50;;;-135.29
15453;BMP280;7827;53.594;9.938;2023-10-09T01:36:42;32960.19;;;-135.29
15453;BMP280;7827;53.594;9.938;2023-10-09T01:39:11;33082.22;;;-135.29
15453;BMP280;7827;53.594;9.938;2023-10-09T01:41:51;33057.03;;;-135.29
15453;BMP280;7827;53.594;9.938;2023-10-09T01:44:27;33006.69;;;-135.29
15453;BMP280;7827;53.594;9.938;2023-10-09T01:46:57;32983.44;;;-135.29
15453;BMP280;7827;53.594;9.938;2023-10-09T01:49:26;33010.56;;;-135.29
15453;BMP280;7827;53.594;9.938;2023-10-09T01:52:02;33037.69;;;-135.29
15453;BMP280;7827;53.594;9.938;2023-10-09T01:54:38;32878.84;;;-135.29
15453;BMP280;7827;53.594;9.938;2023-10-09T01:57:09;32993.13;;;-135.29
15453;BMP280;7827;53.594;9.938;2023-10-09T01:59:39;33084.16;;;-135.29
15453;BMP280;7827;53.594;9.938;2023-10-09T02:02:12;33035.75;;;-135.29
15453;BMP280;7827;53.594;9.938;2023-10-09T02:04:43;32998.94;;;-135.29
15453;BMP280;7827;53.594;9.938;2023-10-09T02:07:11;33041.56;;;-135.29
15453;BMP280;7827;53.594;9.938;2023-10-09T02:09:42;32890.47;;;-135.29
15453;BMP280;7827;53.594;9.938;2023-10-09T02:12:14;33099.66;;;-135.29
15453;BMP280;7827;53.594;9.938;2023-10-09T02:14:43;33122.91;;;-135.29
15453;BMP280;7827;53.594;9.938;2023-10-09T02:17:11;33246.88;;;-135.29
15453;BMP280;7827;53.594;9.938;2023-10-09T02:19:45;33196.50;;;-135.29
15453;BMP280;7827;53.594;9.938;2023-10-09T02:22:16;33107.41;;;-135.29
15453;BMP280;7827;53.594;9.938;2023-10-09T02:24:46;33124.84;;;-135.29
15453;BMP280;7827;53.594;9.938;2023-10-09T02:27:19;33091.91;;;-135.29
15453;BMP280;7827;53.594;9.938;2023-10-09T02:30:17;33086.09;;;-135.29
15453;BMP280;7827;53.594;9.938;2023-10-09T02:32:54;33173.25;;;-135.29
15453;BMP280;7827;53.594;9.938;2023-10-09T02:35:33;33213.94;;;-135.29
15453;BMP280;7827;53.594;9.938;2023-10-09T02:38:05;33221.69;;;-135.29
15453;BMP280;7827;53.594;9.938;2023-10-09T02:40:37;33332.09;;;-135.29
15453;BMP280;7827;53.594;9.938;2023-10-09T02:43:28;33223.63;;;-135.29
15453;BMP280;7827;53.594;9.938;2023-10-09T02:46:01;33316.59;;;-135.29
15453;BMP280;7827;53.594;9.938;2023-10-09T02:48:41;33194.56;;;-135.29
15453;BMP280;7827;53.594;9.938;2023-10-09T02:51:14;33122.91;;;-135.29
15453;BMP280;7827;53.594;9.938;2023-10-09T02:54:01;33390.22;;;-135.29
15453;BMP280;7827;53.594;9.938;2023-10-09T02:56:46;33365.03;;;-135.29
15453;BMP280;7827;53.594;9.938;2023-10-09T02:59:23;33394.09;;;-135.29
15453;BMP280;7827;53.594;9.938;2023-10-09T03:01:52;33217.81;;;-135.29
15453;BMP280;7827;53.594;9.938;2023-10-09T03:04:20;33225.56;;;-135.29
15453;BMP280;7827;53.594;9.938;2023-10-09T03:06:51;33363.09;;;-135.29
15453;BMP280;7827;53.594;9.938;2023-10-09T03:09:25;33246.88;;;-135.29
15453;BMP280;7827;53.594;9.938;2023-10-09T03:12:03;33487.06;;;-135.29
15453;BMP280;7827;53.594;9.938;2023-10-09T03:14:36;33250.75;;;-135.29
15453;BMP280;7827;53.594;9.938;2023-10-09T03:17:06;33295.31;;;-135.29
15453;BMP280;7827;53.594;9.938;2023-10-09T03:19:38;33303.03;;;-135.29
15453;BMP280;7827;53.594;9.938;2023-10-09T03:22:08;33117.09;;;-135.29
15453;BMP280;7827;53.594;9.938;2023-10-09T03:24:38;33347.59;;;-135.29
15453;BMP280;7827;53.594;9.938;2023-10-09T03:27:10;33293.38;;;-135.29
15453;BMP280;7827;53.594;9.938;2023-10-09T03:29:38;33411.53;;;-135.29
15453;BMP280;7827;53.594;9.938;2023-10-09T03:32:07;33196.50;;;-135.29
15453;BMP280;7827;53.594;9.938;2023-10-09T03:34:36;33304.97;;;-135.29
15453;BMP280;7827;53.594;9.938;2023-10-09T03:37:06;33351.47;;;-135.29
15453;BMP280;7827;53.594;9.938;2023-10-09T03:39:48;33146.16;;;-135.29
15453;BMP280;7827;53.594;9.938;2023-10-09T03:42:23;33258.50;;;-135.29
15453;BMP280;7827;53.594;9.938;2023-10-09T03:44:52;33335.97;;;-135.29
15453;BMP280;7827;53.594;9.938;2023-10-09T03:47:21;33260.44;;;-135.29
15453;BMP280;7827;53.594;9.938;2023-10-09T03:49:52;33384.41;;;-135.29
15453;BMP280;7827;53.594;9.938;2023-10-09T03:52:22;33397.97;;;-135.29
15453;BMP280;7827;53.594;9.938;2023-10-09T03:54:53;33304.97;;;-135.29
15453;BMP280;7827;53.594;9.938;2023-10-09T03:57:24;33297.22;;;-135.29
15453;BMP280;7827;53.594;9.938;2023-10-09T03:59:53;33266.25;;;-135.29
15453;BMP280;7827;53.594;9.938;2023-10-09T04:02:22;33328.22;;;-135.29
15453;BMP280;7827;53.594;9.938;2023-10-09T04:04:51;33198.44;;;-135.29
15453;BMP280;7827;53.594;9.938;2023-10-09T04:07:20;33427.03;;;-135.29
15453;BMP280;7827;53.594;9.938;2023-10-09T04:09:48;33587.81;;;-135.29
15453;BMP280;7827;53.594;9.938;2023-10-09T04:12:31;33434.78;;;-135.29
15453;BMP280;7827;53.594;9.938;2023-10-09T04:15:01;33299.16;;;-135.29
15453;BMP280;7827;53.594;9.938;2023-10-09T04:17:32;33314.66;;;-135.29
15453;BMP280;7827;53.594;9.938;2023-10-09T04:20:02;33258.50;;;-135.29
15453;BMP280;7827;53.594;9.938;2023-10-09T04:22:57;33328.22;;;-135.29
15453;BMP280;7827;53.594;9.938;2023-10-09T04:25:32;33347.59;;;-135.29
15453;BMP280;7827;53.594;9.938;2023-10-09T04:28:11;33322.41;;;-135.29
15453;BMP280;7827;53.594;9.938;2023-10-09T04:30:47;33291.44;;;-135.29
15453;BMP280;7827;53.594;9.938;2023-10-09T04:33:21;33440.59;;;-135.29
15453;BMP280;7827;53.594;9.938;2023-10-09T04:36:10;33337.91;;;-135.29
15453;BMP280;7827;53.594;9.938;2023-10-09T04:38:52;33409.59;;;-135.29
15453;BMP280;7827;53.594;9.938;2023-10-09T04:41:43;33312.72;;;-135.29
15453;BMP280;7827;53.594;9.938;2023-10-09T04:44:27;33293.38;;;-135.29
15453;BMP280;7827;53.594;9.938;2023-10-09T04:47:03;33467.72;;;-135.29
15453;BMP280;7827;53.594;9.938;2023-10-09T04:49:52;33394.09;;;-135.29
15453;BMP280;7827;53.594;9.938;2023-10-09T04:52:39;33428.97;;;-135.29
15453;BMP280;7827;53.594;9.938;2023-10-09T04:55:21;33386.34;;;-135.29
15453;BMP280;7827;53.594;9.938;2023-10-09T04:57:52;33494.81;;;-135.29
15453;BMP280;7827;53.594;9.938;2023-10-09T05:00:38;33512.25;;;-135.29
15453;BMP280;7827;53.594;9.938;2023-10-09T05:03:29;33351.47;;;-135.29
15453;BMP280;7827;53.594;9.938;2023-10-09T05:06:11;33332.09;;;-135.29
15453;BMP280;7827;53.594;9.938;2023-10-09T05:09:00;33332.09;;;-135.29
15453;BMP280;7827;53.594;9.938;2023-10-09T05:11:35;33330.16;;;-135.29
15453;BMP280;7827;53.594;9.938;2023-10-09T05:14:18;33347.59;;;-135.29
15453;BMP280;7827;53.594;9.938;2023-10-09T05:16:55;33217.81;;;-135.29
15453;BMP280;7827;53.594;9.938;2023-10-09T05:19:23;33320.47;;;-135.29
15453;BMP280;7827;53.594;9.938;2023-10-09T05:22:01;33527.75;;;-135.29
15453;BMP280;7827;53.594;9.938;2023-10-09T05:24:34;33405.72;;;-135.29
15453;BMP280;7827;53.594;9.938;2023-10-09T05:27:11;33355.34;;;-135.29
15453;BMP280;7827;53.594;9.938;2023-10-09T05:30:12;33359.22;;;-135.29
15453;BMP280;7827;53.594;9.938;2023-10-09T05:32:55;33374.72;;;-135.29
15453;BMP280;7827;53.594;9.938;2023-10-09T05:35:25;33308.84;;;-135.29
15453;BMP280;7827;53.594;9.938;2023-10-09T05:38:08;33531.63;;;-135.29
15453;BMP280;7827;53.594;9.938;2023-10-09T05:40:51;33463.84;;;-135.29
15453;BMP280;7827;53.594;9.938;2023-10-09T05:43:31;33370.84;;;-135.29
15453;BMP280;7827;53.594;9.938;2023-10-09T05:46:17;33475.44;;;-135.29
15453;BMP280;7827;53.594;9.938;2023-10-09T05:48:47;33545.19;;;-135.29
15453;BMP280;7827;53.594;9.938;2023-10-09T05:51:36;33434.78;;;-135.29
15453;BMP280;7827;53.594;9.938;2023-10-09T05:54:10;33456.09;;;-135.29
15453;BMP280;7827;53.594;9.938;2023-10-09T05:57:05;33578.13;;;-135.29
15453;BMP280;7827;53.594;9.938;2023-10-09T05:59:51;33539.38;;;-135.29
15453;BMP280;7827;53.594;9.938;2023-10-09T06:02:52;33543.25;;;-135.29
15453;BMP280;7827;53.594;9.938;2023-10-09T06:05:40;33533.56;;;-135.29
15453;BMP280;7827;53.594;9.938;2023-10-09T06:08:30;33613.00;;;-135.29
15453;BMP280;7827;53.594;9.938;2023-10-09T06:11:14;33541.31;;;-135.29
15453;BMP280;7827;53.594;9.938;2023-10-09T06:13:59;33549.06;;;-135.29
15453;BMP280;7827;53.594;9.938;2023-10-09T06:16:31;33506.44;;;-135.29
15453;BMP280;7827;53.594;9.938;2023-10-09T06:19:10;33531.63;;;-135.29
15453;BMP280;7827;53.594;9.938;2023-10-09T06:21:42;33529.69;;;-135.29
15453;BMP280;7827;53.594;9.938;2023-10-09T06:24:27;33514.19;;;-135.29
15453;BMP280;7827;53.594;9.938;2023-10-09T06:27:10;33516.13;;;-135.29
15453;BMP280;7827;53.594;9.938;2023-10-09T06:29:51;33607.19;;;-135.29
15453;BMP280;7827;53.594;9.938;2023-10-09T06:32:41;33587.81;;;-135.29
15453;BMP280;7827;53.594;9.938;2023-10-09T06:35:18;33564.56;;;-135.29
15453;BMP280;7827;53.594;9.938;2023-10-09T06:37:51;33688.56;;;-135.29
15453;BMP280;7827;53.594;9.938;2023-10-09T06:40:35;33500.63;;;-135.29
15453;BMP280;7827;53.594;9.938;2023-10-09T06:43:50;33479.31;;;-135.29
15453;BMP280;7827;53.594;9.938;2023-10-09T06:46:20;33609.13;;;-135.29
15453;BMP280;7827;53.594;9.938;2023-10-09T06:49:06;33599.44;;;-135.29
15453;BMP280;7827;53.594;9.938;2023-10-09T06:51:56;33676.94;;;-135.29
15453;BMP280;7827;53.594;9.938;2023-10-09T06:54:42;33634.31;;;-135.29
15453;BMP280;7827;53.594;9.938;2023-10-09T06:57:18;33618.81;;;-135.29
15453;BMP280;7827;53.594;9.938;2023-10-09T07:00:00;33471.56;;;-135.29
15453;BMP280;7827;53.594;9.938;2023-10-09T07:02:58;33397.97;;;-135.29
15453;BMP280;7827;53.594;9.938;2023-10-09T07:05:38;33366.97;;;-135.29
15453;BMP280;7827;53.594;9.938;2023-10-09T07:08:27;33372.78;;;-135.29
15453;BMP280;7827;53.594;9.938;2023-10-09T07:11:05;33277.88;;;-135.29
15453;BMP280;7827;53.594;9.938;2023-10-09T07:14:13;33326.28;;;-135.29
15453;BMP280;7827;53.594;9.938;2023-10-09T07:17:03;33167.44;;;-135.29
15453;BMP280;7827;53.594;9.938;2023-10-09T07:19:44;33397.97;;;-135.29
15453;BMP280;7827;53.594;9.938;2023-10-09T07:22:36;33223.63;;;-135.29
15453;BMP280;7827;53.594;9.938;2023-10-09T07:25:20;33361.16;;;-135.29
15453;BMP280;7827;53.594;9.938;2023-10-09T07:28:23;33088.03;;;-135.29
15453;BMP280;7827;53.594;9.938;2023-10-09T07:31:04;33289.50;;;-135.29
15453;BMP280;7827;53.594;9.938;2023-10-09T07:33:36;33169.38;;;-135.29
15453;BMP280;7827;53.594;9.938;2023-10-09T07:36:30;33076.41;;;-135.29
15453;BMP280;7827;53.594;9.938;2023-10-09T07:39:05;32987.31;;;-135.29
15453;BMP280;7827;53.594;9.938;2023-10-09T07:41:44;32944.72;;;-135.29
15453;BMP280;7827;53.594;9.938;2023-10-09T07:44:23;33026.06;;;-135.29
15453;BMP280;7827;53.594;9.938;2023-10-09T07:47:05;33068.66;;;-135.29
15453;BMP280;7827;53.594;9.938;2023-10-09T07:49:46;33068.66;;;-135.29
15453;BMP280;7827;53.594;9.938;2023-10-09T07:52:23;33103.53;;;-135.29
15453;BMP280;7827;53.594;9.938;2023-10-09T07:54:53;32824.63;;;-135.29
15453;BMP280;7827;53.594;9.938;2023-10-09T07:57:29;32948.59;;;-135.29
15453;BMP280;7827;53.594;9.938;2023-10-09T08:00:07;33068.66;;;-135.29
15453;BMP280;7827;53.594;9.938;2023-10-09T08:02:55;33287.56;;;-135.29
15453;BMP280;7827;53.594;9.938;2023-10-09T08:05:28;33200.38;;;-135.29
15453;BMP280;7827;53.594;9.938;2023-10-09T08:08:03;33212.00;;;-135.29
15453;BMP280;7827;53.594;9.938;2023-10-09T08:10:56;33113.22;;;-135.29
15453;BMP280;7827;53.594;9.938;2023-10-09T08:13:41;33184.88;;;-135.29
15453;BMP280;7827;53.594;9.938;2023-10-09T08:16:24;33440.59;;;-135.29
15453;BMP280;7827;53.594;9.938;2023-10-09T08:19:04;33415.41;;;-135.29
15453;BMP280;7827;53.594;9.938;2023-10-09T08:21:47;33287.56;;;-135.29
15453;BMP280;7827;53.594;9.938;2023-10-09T08:24:37;33281.75;;;-135.29
15453;BMP280;7827;53.594;9.938;2023-10-09T08:27:10;32894.34;;;-135.29
15453;BMP280;7827;53.594;9.938;2023-10-09T08:30:14;33144.22;;;-135.29
15453;BMP280;7827;53.594;9.938;2023-10-09T08:32:55;32981.50;;;-135.29
15453;BMP280;7827;53.594;9.938;2023-10-09T08:35:35;33215.88;;;-135.29
15453;BMP280;7827;53.594;9.938;2023-10-09T08:38:14;33264.31;;;-135.29
15453;BMP280;7827;53.594;9.938;2023-10-09T08:40:51;33181.00;;;-135.29
15453;BMP280;7827;53.594;9.938;2023-10-09T08:43:33;33223.63;;;-135.29
15453;BMP280;7827;53.594;9.938;2023-10-09T08:46:05;33392.16;;;-135.29
15453;BMP280;7827;53.594;9.938;2023-10-09T08:48:34;33165.50;;;-135.29
15453;BMP280;7827;53.594;9.938;2023-10-09T08:51:06;33169.38;;;-135.29
15453;BMP280;7827;53.594;9.938;2023-10-09T08:53:37;33320.47;;;-135.29
15453;BMP280;7827;53.594;9.938;2023-10-09T08:56:10;33194.56;;;-135.29
15453;BMP280;7827;53.594;9.938;2023-10-09T08:58:40;33217.81;;;-135.29
15453;BMP280;7827;53.594;9.938;2023-10-09T09:01:08;33142.28;;;-135.29
15453;BMP280;7827;53.594;9.938;2023-10-09T09:03:39;33109.34;;;-135.29
15453;BMP280;7827;53.594;9.938;2023-10-09T09:06:10;33177.13;;;-135.29
15453;BMP280;7827;53.594;9.938;2023-10-09T09:08:44;33254.63;;;-135.29
15453;BMP280;7827;53.594;9.938;2023-10-09T09:11:15;33190.69;;;-135.29
15453;BMP280;7827;53.594;9.938;2023-10-09T09:13:59;33099.66;;;-135.29
15453;BMP280;7827;53.594;9.938;2023-10-09T09:16:34;33202.31;;;-135.29
15453;BMP280;7827;53.594;9.938;2023-10-09T09:19:05;33312.72;;;-135.29
15453;BMP280;7827;53.594;9.938;2023-10-09T09:21:50;33215.88;;;-135.29
15453;BMP280;7827;53.594;9.938;2023-10-09T09:24:22;33146.16;;;-135.29
15453;BMP280;7827;53.594;9.938;2023-10-09T09:27:03;33266.25;;;-135.29
15453;BMP280;7827;53.594;9.938;2023-10-09T09:29:42;33018.31;;;-135.29
15453;BMP280;7827;53.594;9.938;2023-10-09T09:32:28;33190.69;;;-135.29
15453;BMP280;7827;53.594;9.938;2023-10-09T09:35:05;33126.78;;;-135.29
15453;BMP280;7827;53.594;9.938;2023-10-09T09:37:53;33213.94;;;-135.29
15453;BMP280;7827;53.594;9.938;2023-10-09T09:40:23;33078.34;;;-135.29
15453;BMP280;7827;53.594;9.938;2023-10-09T09:43:03;33018.31;;;-135.29
15453;BMP280;7827;53.594;9.938;2023-10-09T09:45:37;33070.59;;;-135.29
15453;BMP280;7827;53.594;9.938;2023-10-09T09:48:10;32998.94;;;-135.29
15453;BMP280;7827;53.594;9.938;2023-10-09T09:50:42;32760.72;;;-135.29
15453;BMP280;7827;53.594;9.938;2023-10-09T09:53:11;32917.59;;;-135.29
15453;BMP280;7827;53.594;9.938;2023-10-09T09:55:50;33041.56;;;-135.29
15453;BMP280;7827;53.594;9.938;2023-10-09T09:58:27;32836.25;;;-135.29
15453;BMP280;7827;53.594;9.938;2023-10-09T10:01:04;32971.81;;;-135.29
15453;BMP280;7827;53.594;9.938;2023-10-09T10:03:49;32733.59;;;-135.29
15453;BMP280;7827;53.594;9.938;2023-10-09T10:06:20;32534.13;;;-135.29
15453;BMP280;7827;53.594;9.938;2023-10-09T10:08:49;32477.97;;;-135.29
15453;BMP280;7827;53.594;9.938;2023-10-09T10:11:45;32477.97;;;-135.29
15453;BMP280;7827;53.594;9.938;2023-10-09T10:14:15;32295.94;;;-135.29
15453;BMP280;7827;53.594;9.938;2023-10-09T10:17:07;32274.63;;;-135.29
15453;BMP280;7827;53.594;9.938;2023-10-09T10:20:07;32204.94;;;-135.29
15453;BMP280;7827;53.594;9.938;2023-10-09T10:22:49;32317.25;;;-135.29
15453;BMP280;7827;53.594;9.938;2023-10-09T10:25:35;32204.94;;;-135.29
15453;BMP280;7827;53.594;9.938;2023-10-09T10:28:21;32460.53;;;-135.29
15453;BMP280;7827;53.594;9.938;2023-10-09T10:31:10;32379.22;;;-135.29
15453;BMP280;7827;53.594;9.938;2023-10-09T10:34:04;32255.28;;;-135.29
15453;BMP280;7827;53.594;9.938;2023-10-09T10:36:37;32146.84;;;-135.29
15453;BMP280;7827;53.594;9.938;2023-10-09T10:39:09;32189.44;;;-135.29
15453;BMP280;7827;53.594;9.938;2023-10-09T10:41:53;31990.00;;;-135.29
15453;BMP280;7827;53.594;9.938;2023-10-09T10:44:27;32154.59;;;-135.29
15453;BMP280;7827;53.594;9.938;2023-10-09T10:47:05;32379.22;;;-135.29
15453;BMP280;7827;53.594;9.938;2023-10-09T10:49:51;32400.50;;;-135.29
15453;BMP280;7827;53.594;9.938;2023-10-09T10:52:27;32487.66;;;-135.29
15453;BMP280;7827;53.594;9.938;2023-10-09T10:55:12;32441.16;;;-135.29
15453;BMP280;7827;53.594;9.938;2023-10-09T10:58:20;32619.34;;;-135.29
15453;BMP280;7827;53.594;9.938;2023-10-09T11:00:53;32565.13;;;-135.29
15453;BMP280;7827;53.594;9.938;2023-10-09T11:03:39;32568.97;;;-135.29
15453;BMP280;7827;53.594;9.938;2023-10-09T11:06:28;32654.19;;;-135.29
15453;BMP280;7827;53.594;9.938;2023-10-09T11:09:09;32638.69;;;-135.29
15453;BMP280;7827;53.594;9.938;2023-10-09T11:11:49;32611.59;;;-135.29
15453;BMP280;7827;53.594;9.938;2023-10-09T11:15:01;32648.38;;;-135.29
15453;BMP280;7827;53.594;9.938;2023-10-09T11:18:07;32636.75;;;-135.29
15453;BMP280;7827;53.594;9.938;2023-10-09T11:20:44;32557.38;;;-135.29
15453;BMP280;7827;53.594;9.938;2023-10-09T11:23:25;32547.69;;;-135.29
15453;BMP280;7827;53.594;9.938;2023-10-09T11:26:05;32725.84;;;-135.29
15453;BMP280;7827;53.594;9.938;2023-10-09T11:29:09;32704.56;;;-135.29
15453;BMP280;7827;53.594;9.938;2023-10-09T11:32:01;32611.59;;;-135.29
15453;BMP280;7827;53.594;9.938;2023-10-09T11:37:39;32611.59;;;-135.29
15453;BMP280;7827;53.594;9.938;2023-10-09T11:40:32;32524.44;;;-135.29
15453;BMP280;7827;53.594;9.938;2023-10-09T11:43:17;32567.03;;;-135.29
15453;BMP280;7827;53.594;9.938;2023-10-09T11:45:53;32654.19;;;-135.29
15453;BMP280;7827;53.594;9.938;2023-10-09T11:48:24;32599.97;;;-135.29
15453;BMP280;7827;53.594;9.938;2023-10-09T11:51:00;32648.38;;;-135.29
15453;BMP280;7827;53.594;9.938;2023-10-09T11:53:43;32673.56;;;-135.29
15453;BMP280;7827;53.594;9.938;2023-10-09T11:56:15;32388.88;;;-135.29
15453;BMP280;7827;53.594;9.938;2023-10-09T11:58:47;32479.91;;;-135.29
15453;BMP280;7827;53.594;9.938;2023-10-09T12:01:17;32228.16;;;-135.29
15453;BMP280;7827;53.594;9.938;2023-10-09T12:03:48;32419.88;;;-135.29
15453;BMP280;7827;53.594;9.938;2023-10-09T12:06:20;32410.19;;;-135.29
15453;BMP280;7827;53.594;9.938;2023-10-09T12:08:50;32355.97;;;-135.29
15453;BMP280;7827;53.594;9.938;2023-10-09T12:11:20;32112.00;;;-135.29
15453;BMP280;7827;53.594;9.938;2023-10-09T12:13:57;32239.78;;;-135.29
15453;BMP280;7827;53.594;9.938;2023-10-09T12:16:28;32377.28;;;-135.29
15453;BMP280;7827;53.594;9.938;2023-10-09T12:19:00;32224.28;;;-135.29
15453;BMP280;7827;53.594;9.938;2023-10-09T12:21:29;32154.59;;;-135.29
15453;BMP280;7827;53.594;9.938;2023-10-09T12:23:58;32017.13;;;-135.29
15453;BMP280;7827;53.594;9.938;2023-10-09T12:26:30;32131.34;;;-135.29
15453;BMP280;7827;53.594;9.938;2023-10-09T12:29:02;31999.69;;;-135.29
15453;BMP280;7827;53.594;9.938;2023-10-09T12:31:31;31616.34;;;-135.29
15453;BMP280;7827;53.594;9.938;2023-10-09T12:34:01;31761.53;;;-135.29
15453;BMP280;7827;53.594;9.938;2023-10-09T12:36:29;31612.47;;;-135.29
15453;BMP280;7827;53.594;9.938;2023-10-09T12:39:04;31761.53;;;-135.29
15453;BMP280;7827;53.594;9.938;2023-10-09T12:41:35;31693.78;;;-135.29
15453;BMP280;7827;53.594;9.938;2023-10-09T12:44:08;31610.53;;;-135.29
15453;BMP280;7827;53.594;9.938;2023-10-09T12:46:42;31763.47;;;-135.29
15453;BMP280;7827;53.594;9.938;2023-10-09T12:49:19;31492.44;;;-135.29
15453;BMP280;7827;53.594;9.938;2023-10-09T12:51:52;31678.28;;;-135.29
15453;BMP280;7827;53.594;9.938;2023-10-09T12:54:20;31622.16;;;-135.29
15453;BMP280;7827;53.594;9.938;2023-10-09T12:56:56;31722.81;;;-135.29
15453;BMP280;7827;53.594;9.938;2023-10-09T12:59:25;31780.91;;;-135.29
15453;BMP280;7827;53.594;9.938;2023-10-09T13:01:53;31691.84;;;-135.29
15453;BMP280;7827;53.594;9.938;2023-10-09T13:04:25;31744.13;;;-135.29
15453;BMP280;7827;53.594;9.938;2023-10-09T13:06:59;31724.75;;;-135.29
15453;BMP280;7827;53.594;9.938;2023-10-09T13:09:31;31689.91;;;-135.29
15453;BMP280;7827;53.594;9.938;2023-10-09T13:12:04;31786.72;;;-135.29
15453;BMP280;7827;53.594;9.938;2023-10-09T13:14:34;31562.16;;;-135.29
15453;BMP280;7827;53.594;9.938;2023-10-09T13:17:03;31647.31;;;-135.29
15453;BMP280;7827;53.594;9.938;2023-10-09T13:19:37;31655.06;;;-135.29
15453;BMP280;7827;53.594;9.938;2023-10-09T13:22:05;31504.06;;;-135.29
15453;BMP280;7827;53.594;9.938;2023-10-09T13:24:40;31556.34;;;-135.29
15453;BMP280;7827;53.594;9.938;2023-10-09T13:27:10;31627.97;;;-135.29
15453;BMP280;7827;53.594;9.938;2023-10-09T13:29:39;31399.53;;;-135.29
15453;BMP280;7827;53.594;9.938;2023-10-09T13:32:08;31285.31;;;-135.29
15453;BMP280;7827;53.594;9.938;2023-10-09T13:34:42;31434.38;;;-135.29
15453;BMP280;7827;53.594;9.938;2023-10-09T13:37:12;31178.88;;;-135.29
15453;BMP280;7827;53.594;9.938;2023-10-09T13:39:41;31264.03;;;-135.29
15453;BMP280;7827;53.594;9.938;2023-10-09T13:42:20;31345.34;;;-135.29
15453;BMP280;7827;53.594;9.938;2023-10-09T13:44:52;31529.22;;;-135.29
15453;BMP280;7827;53.594;9.938;2023-10-09T13:47:22;31302.75;;;-135.29
15453;BMP280;7827;53.594;9.938;2023-10-09T13:49:56;31302.75;;;-135.29
15453;BMP280;7827;53.594;9.938;2023-10-09T13:52:26;31322.09;;;-135.29
15453;BMP280;7827;53.594;9.938;2023-10-09T13:54:55;31202.09;;;-135.29
15453;BMP280;7827;53.594;9.938;2023-10-09T13:57:26;31221.44;;;-135.29
15453;BMP280;7827;53.594;9.938;2023-10-09T13:59:58;31353.06;;;-135.29
15453;BMP280;7827;53.594;9.938;2023-10-09T14:02:27;31233.06;;;-135.29
15453;BMP280;7827;53.594;9.938;2023-10-09T14:04:56;31194.34;;;-135.29
15453;BMP280;7827;53.594;9.938;2023-10-09T14:07:28;31252.41;;;-135.29
15453;BMP280;7827;53.594;9.938;2023-10-09T14:09:56;31209.84;;;-135.29
15453;BMP280;7827;53.594;9.938;2023-10-09T14:12:36;31176.94;;;-135.29
15453;BMP280;7827;53.594;9.938;2023-10-09T14:15:09;31349.22;;;-135.29
15453;BMP280;7827;53.594;9.938;2023-10-09T14:17:44;31169.19;;;-135.29
15453;BMP280;7827;53.594;9.938;2023-10-09T14:20:14;31076.28;;;-135.29
15453;BMP280;7827;53.594;9.938;2023-10-09T14:22:59;31024.03;;;-135.29
15453;BMP280;7827;53.594;9.938;2023-10-09T14:25:34;31116.94;;;-135.29
15453;BMP280;7827;53.594;9.938;2023-10-09T14:28:06;31093.69;;;-135.29
15453;BMP280;7827;53.594;9.938;2023-10-09T14:30:36;31020.16;;;-135.29
15453;BMP280;7827;53.594;9.938;2023-10-09T14:33:10;30948.53;;;-135.29
15453;BMP280;7827;53.594;9.938;2023-10-09T14:35:41;31175.00;;;-135.29
15453;BMP280;7827;53.594;9.938;2023-10-09T14:38:10;30892.41;;;-135.29
15453;BMP280;7827;53.594;9.938;2023-10-09T14:40:43;30822.75;;;-135.29
15453;BMP280;7827;53.594;9.938;2023-10-09T14:43:14;30756.94;;;-135.29
15453;BMP280;7827;53.594;9.938;2023-10-09T14:45:51;30865.31;;;-135.29
15453;BMP280;7827;53.594;9.938;2023-10-09T14:48:21;30965.97;;;-135.29
15453;BMP280;7827;53.594;9.938;2023-10-09T14:50:53;30838.22;;;-135.29
15453;BMP280;7827;53.594;9.938;2023-10-09T14:53:22;30927.25;;;-135.29
15453;BMP280;7827;53.594;9.938;2023-10-09T14:55:57;30965.97;;;-135.29